Aydlett, North Carolina
Current Conditions -  °F | °C
As of 7:55 PM on Monday 26 Jan 2015 (Local Time) from KONX Reporting Station
Overcast Overcast  
Wind Chill: 35°   Ceiling: 500
Heat Index: 42°   Visibility: 7mi
Dew Point: 39°   Wind: 13mph
Humidity: 89%   Direction: 340°NNW
Pressure: 29.59"   Gusts: 24mph
Location:  36.33°N, 75.91°W
Report Text: KONX 270055Z AUTO 34011G21KT 7SM OVC005 06/04 A2959 RMK AO2 T00560039
Loading
Personal Weather Stations






























Interactive Weather Map New forecast layout! Learn more

10-Day Weather Forecast

Advertisements
Track Severe Weather on mobile